sensor_id;sensor_type;location;lat;lon;timestamp;P1;durP1;ratioP1;P2;durP2;ratioP2
9473;SDS011;8865;47.636;7.692;2022-11-03T00:01:36;6.27;;;3.23;;
9473;SDS011;8865;47.636;7.692;2022-11-03T00:04:08;5.87;;;3.10;;
9473;SDS011;8865;47.636;7.692;2022-11-03T00:06:36;5.97;;;2.50;;
9473;SDS011;8865;47.636;7.692;2022-11-03T00:09:03;4.57;;;2.80;;
9473;SDS011;8865;47.636;7.692;2022-11-03T00:11:32;3.97;;;2.90;;
9473;SDS011;8865;47.636;7.692;2022-11-03T00:13:59;4.73;;;2.63;;
9473;SDS011;8865;47.636;7.692;2022-11-03T00:16:25;3.57;;;3.00;;
9473;SDS011;8865;47.636;7.692;2022-11-03T00:18:51;5.87;;;3.03;;
9473;SDS011;8865;47.636;7.692;2022-11-03T00:21:18;4.83;;;2.40;;
9473;SDS011;8865;47.636;7.692;2022-11-03T00:23:44;10.50;;;3.07;;
9473;SDS011;8865;47.636;7.692;2022-11-03T00:26:14;4.67;;;2.90;;
9473;SDS011;8865;47.636;7.692;2022-11-03T00:28:44;4.37;;;2.60;;
9473;SDS011;8865;47.636;7.692;2022-11-03T00:31:12;5.03;;;2.77;;
9473;SDS011;8865;47.636;7.692;2022-11-03T00:33:40;6.40;;;2.53;;
9473;SDS011;8865;47.636;7.692;2022-11-03T00:36:06;4.00;;;2.30;;
9473;SDS011;8865;47.636;7.692;2022-11-03T00:38:34;5.13;;;2.63;;
9473;SDS011;8865;47.636;7.692;2022-11-03T00:41:02;6.67;;;2.37;;
9473;SDS011;8865;47.636;7.692;2022-11-03T00:43:30;6.00;;;2.80;;
9473;SDS011;8865;47.636;7.692;2022-11-03T00:45:59;7.93;;;2.77;;
9473;SDS011;8865;47.636;7.692;2022-11-03T00:48:25;7.63;;;2.83;;
9473;SDS011;8865;47.636;7.692;2022-11-03T00:53:29;7.17;;;2.73;;
9473;SDS011;8865;47.636;7.692;2022-11-03T00:55:57;4.40;;;2.30;;
9473;SDS011;8865;47.636;7.692;2022-11-03T00:58:23;7.77;;;2.63;;
9473;SDS011;8865;47.636;7.692;2022-11-03T01:00:50;5.07;;;2.53;;
9473;SDS011;8865;47.636;7.692;2022-11-03T01:03:16;4.10;;;2.50;;
9473;SDS011;8865;47.636;7.692;2022-11-03T01:05:42;3.80;;;2.40;;
9473;SDS011;8865;47.636;7.692;2022-11-03T01:08:31;4.47;;;2.57;;
9473;SDS011;8865;47.636;7.692;2022-11-03T01:14:09;6.17;;;2.57;;
9473;SDS011;8865;47.636;7.692;2022-11-03T01:16:36;5.57;;;3.07;;
9473;SDS011;8865;47.636;7.692;2022-11-03T01:19:03;3.97;;;2.60;;
9473;SDS011;8865;47.636;7.692;2022-11-03T01:21:29;6.33;;;2.33;;
9473;SDS011;8865;47.636;7.692;2022-11-03T01:23:55;3.70;;;2.57;;
9473;SDS011;8865;47.636;7.692;2022-11-03T01:26:21;5.30;;;2.57;;
9473;SDS011;8865;47.636;7.692;2022-11-03T01:28:47;3.83;;;2.17;;
9473;SDS011;8865;47.636;7.692;2022-11-03T01:31:15;3.20;;;2.30;;
9473;SDS011;8865;47.636;7.692;2022-11-03T01:33:42;5.97;;;2.57;;
9473;SDS011;8865;47.636;7.692;2022-11-03T01:36:10;5.13;;;2.50;;
9473;SDS011;8865;47.636;7.692;2022-11-03T01:38:38;4.73;;;2.50;;
9473;SDS011;8865;47.636;7.692;2022-11-03T01:41:05;5.50;;;2.23;;
9473;SDS011;8865;47.636;7.692;2022-11-03T01:43:33;6.60;;;2.23;;
9473;SDS011;8865;47.636;7.692;2022-11-03T01:48:28;5.57;;;2.23;;
9473;SDS011;8865;47.636;7.692;2022-11-03T01:50:55;4.53;;;2.20;;
9473;SDS011;8865;47.636;7.692;2022-11-03T01:53:21;4.07;;;2.40;;
9473;SDS011;8865;47.636;7.692;2022-11-03T01:55:48;5.13;;;2.37;;
9473;SDS011;8865;47.636;7.692;2022-11-03T01:58:16;3.43;;;2.20;;
9473;SDS011;8865;47.636;7.692;2022-11-03T02:00:47;4.90;;;2.20;;
9473;SDS011;8865;47.636;7.692;2022-11-03T02:03:16;5.07;;;2.30;;
9473;SDS011;8865;47.636;7.692;2022-11-03T02:05:44;10.33;;;2.50;;
9473;SDS011;8865;47.636;7.692;2022-11-03T02:08:13;5.53;;;2.60;;
9473;SDS011;8865;47.636;7.692;2022-11-03T02:10:42;5.30;;;2.70;;
9473;SDS011;8865;47.636;7.692;2022-11-03T02:13:19;6.53;;;2.30;;
9473;SDS011;8865;47.636;7.692;2022-11-03T02:15:47;4.10;;;2.30;;
9473;SDS011;8865;47.636;7.692;2022-11-03T02:18:19;6.23;;;2.57;;
9473;SDS011;8865;47.636;7.692;2022-11-03T02:20:50;3.97;;;2.40;;
9473;SDS011;8865;47.636;7.692;2022-11-03T02:26:12;7.23;;;2.50;;
9473;SDS011;8865;47.636;7.692;2022-11-03T02:28:40;7.27;;;2.60;;
9473;SDS011;8865;47.636;7.692;2022-11-03T02:31:15;6.80;;;2.10;;
9473;SDS011;8865;47.636;7.692;2022-11-03T02:36:49;3.47;;;2.10;;
9473;SDS011;8865;47.636;7.692;2022-11-03T02:39:27;5.13;;;2.57;;
9473;SDS011;8865;47.636;7.692;2022-11-03T02:42:07;3.97;;;2.50;;
9473;SDS011;8865;47.636;7.692;2022-11-03T02:44:36;7.83;;;2.40;;
9473;SDS011;8865;47.636;7.692;2022-11-03T02:47:08;8.07;;;2.27;;
9473;SDS011;8865;47.636;7.692;2022-11-03T02:49:46;7.30;;;2.50;;
9473;SDS011;8865;47.636;7.692;2022-11-03T03:00:46;3.57;;;2.30;;
9473;SDS011;8865;47.636;7.692;2022-11-03T03:03:19;6.40;;;2.20;;
9473;SDS011;8865;47.636;7.692;2022-11-03T03:05:51;4.60;;;2.17;;
9473;SDS011;8865;47.636;7.692;2022-11-03T03:08:22;6.23;;;2.57;;
9473;SDS011;8865;47.636;7.692;2022-11-03T03:10:50;7.30;;;2.20;;
9473;SDS011;8865;47.636;7.692;2022-11-03T03:13:18;4.43;;;2.10;;
9473;SDS011;8865;47.636;7.692;2022-11-03T03:21:24;5.70;;;2.20;;
9473;SDS011;8865;47.636;7.692;2022-11-03T03:23:56;3.40;;;2.20;;
9473;SDS011;8865;47.636;7.692;2022-11-03T03:26:29;6.47;;;2.53;;
9473;SDS011;8865;47.636;7.692;2022-11-03T03:29:04;3.43;;;2.03;;
9473;SDS011;8865;47.636;7.692;2022-11-03T03:32:02;5.20;;;2.10;;
9473;SDS011;8865;47.636;7.692;2022-11-03T03:34:32;11.60;;;2.30;;
9473;SDS011;8865;47.636;7.692;2022-11-03T03:37:00;3.57;;;2.30;;
9473;SDS011;8865;47.636;7.692;2022-11-03T03:39:29;3.83;;;2.03;;
9473;SDS011;8865;47.636;7.692;2022-11-03T03:41:58;6.30;;;2.27;;
9473;SDS011;8865;47.636;7.692;2022-11-03T03:44:26;4.20;;;2.20;;
9473;SDS011;8865;47.636;7.692;2022-11-03T03:46:57;3.60;;;2.07;;
9473;SDS011;8865;47.636;7.692;2022-11-03T03:49:25;5.33;;;2.20;;
9473;SDS011;8865;47.636;7.692;2022-11-03T03:51:51;4.87;;;2.10;;
9473;SDS011;8865;47.636;7.692;2022-11-03T03:54:17;4.07;;;2.30;;
9473;SDS011;8865;47.636;7.692;2022-11-03T03:59:12;5.00;;;2.30;;
9473;SDS011;8865;47.636;7.692;2022-11-03T04:01:38;4.60;;;2.03;;
9473;SDS011;8865;47.636;7.692;2022-11-03T04:04:04;4.57;;;2.37;;
9473;SDS011;8865;47.636;7.692;2022-11-03T04:06:30;2.90;;;1.60;;
9473;SDS011;8865;47.636;7.692;2022-11-03T04:08:56;3.27;;;1.80;;
9473;SDS011;8865;47.636;7.692;2022-11-03T04:11:22;5.37;;;2.20;;
9473;SDS011;8865;47.636;7.692;2022-11-03T04:14:08;6.23;;;2.30;;
9473;SDS011;8865;47.636;7.692;2022-11-03T04:16:52;5.67;;;2.07;;
9473;SDS011;8865;47.636;7.692;2022-11-03T04:19:37;3.47;;;2.10;;
9473;SDS011;8865;47.636;7.692;2022-11-03T04:22:22;4.83;;;2.10;;
9473;SDS011;8865;47.636;7.692;2022-11-03T04:24:50;2.93;;;1.90;;
9473;SDS011;8865;47.636;7.692;2022-11-03T04:27:32;3.80;;;2.10;;
9473;SDS011;8865;47.636;7.692;2022-11-03T04:30:01;6.43;;;1.97;;
9473;SDS011;8865;47.636;7.692;2022-11-03T04:32:30;4.73;;;2.13;;
9473;SDS011;8865;47.636;7.692;2022-11-03T04:34:57;5.47;;;2.37;;
9473;SDS011;8865;47.636;7.692;2022-11-03T04:37:25;3.50;;;1.97;;
9473;SDS011;8865;47.636;7.692;2022-11-03T04:39:58;5.07;;;2.63;;
9473;SDS011;8865;47.636;7.692;2022-11-03T04:42:25;6.27;;;2.50;;
9473;SDS011;8865;47.636;7.692;2022-11-03T04:44:54;3.23;;;2.03;;
9473;SDS011;8865;47.636;7.692;2022-11-03T04:47:21;4.40;;;2.30;;
9473;SDS011;8865;47.636;7.692;2022-11-03T04:49:47;4.67;;;2.07;;
9473;SDS011;8865;47.636;7.692;2022-11-03T04:52:15;3.57;;;2.40;;
9473;SDS011;8865;47.636;7.692;2022-11-03T04:54:43;4.73;;;2.10;;
9473;SDS011;8865;47.636;7.692;2022-11-03T04:57:11;5.90;;;2.53;;
9473;SDS011;8865;47.636;7.692;2022-11-03T04:59:44;4.00;;;1.97;;
9473;SDS011;8865;47.636;7.692;2022-11-03T05:02:12;5.90;;;2.20;;
9473;SDS011;8865;47.636;7.692;2022-11-03T05:04:48;6.50;;;2.50;;
9473;SDS011;8865;47.636;7.692;2022-11-03T05:07:35;4.03;;;2.20;;
9473;SDS011;8865;47.636;7.692;2022-11-03T05:10:01;3.77;;;2.27;;
9473;SDS011;8865;47.636;7.692;2022-11-03T05:12:29;5.07;;;2.37;;
9473;SDS011;8865;47.636;7.692;2022-11-03T05:14:55;5.50;;;2.73;;
9473;SDS011;8865;47.636;7.692;2022-11-03T05:17:25;4.17;;;2.13;;
9473;SDS011;8865;47.636;7.692;2022-11-03T05:20:01;4.27;;;2.10;;
9473;SDS011;8865;47.636;7.692;2022-11-03T05:22:29;3.87;;;2.33;;
9473;SDS011;8865;47.636;7.692;2022-11-03T05:25:02;2.50;;;2.00;;
9473;SDS011;8865;47.636;7.692;2022-11-03T05:27:52;5.47;;;2.60;;
9473;SDS011;8865;47.636;7.692;2022-11-03T05:30:18;5.43;;;2.33;;
9473;SDS011;8865;47.636;7.692;2022-11-03T05:32:44;4.07;;;2.57;;
9473;SDS011;8865;47.636;7.692;2022-11-03T05:35:22;3.43;;;2.20;;
9473;SDS011;8865;47.636;7.692;2022-11-03T05:37:48;6.57;;;2.80;;
9473;SDS011;8865;47.636;7.692;2022-11-03T05:40:19;4.20;;;2.30;;
9473;SDS011;8865;47.636;7.692;2022-11-03T05:43:00;4.73;;;2.50;;
9473;SDS011;8865;47.636;7.692;2022-11-03T05:45:33;5.57;;;2.63;;
9473;SDS011;8865;47.636;7.692;2022-11-03T05:48:00;7.23;;;2.73;;
9473;SDS011;8865;47.636;7.692;2022-11-03T05:50:28;5.17;;;2.67;;
9473;SDS011;8865;47.636;7.692;2022-11-03T05:53:09;4.83;;;2.60;;
9473;SDS011;8865;47.636;7.692;2022-11-03T05:55:36;7.40;;;2.43;;
9473;SDS011;8865;47.636;7.692;2022-11-03T05:58:11;6.03;;;2.67;;
9473;SDS011;8865;47.636;7.692;2022-11-03T06:00:46;5.80;;;2.53;;
9473;SDS011;8865;47.636;7.692;2022-11-03T06:03:13;4.40;;;2.60;;
9473;SDS011;8865;47.636;7.692;2022-11-03T06:05:43;6.17;;;2.87;;
9473;SDS011;8865;47.636;7.692;2022-11-03T06:08:16;5.67;;;3.03;;
9473;SDS011;8865;47.636;7.692;2022-11-03T06:10:48;6.80;;;4.40;;
9473;SDS011;8865;47.636;7.692;2022-11-03T06:13:20;7.07;;;5.30;;
9473;SDS011;8865;47.636;7.692;2022-11-03T06:16:01;5.83;;;4.00;;
9473;SDS011;8865;47.636;7.692;2022-11-03T06:18:32;4.83;;;2.90;;
9473;SDS011;8865;47.636;7.692;2022-11-03T06:21:02;5.83;;;3.50;;
9473;SDS011;8865;47.636;7.692;2022-11-03T06:23:43;6.67;;;3.90;;
9473;SDS011;8865;47.636;7.692;2022-11-03T06:26:43;6.67;;;3.03;;
9473;SDS011;8865;47.636;7.692;2022-11-03T06:29:02;3.80;;;2.97;;
9473;SDS011;8865;47.636;7.692;2022-11-03T06:31:29;5.00;;;3.07;;
9473;SDS011;8865;47.636;7.692;2022-11-03T06:33:57;6.77;;;3.33;;
9473;SDS011;8865;47.636;7.692;2022-11-03T06:36:24;9.67;;;4.30;;
9473;SDS011;8865;47.636;7.692;2022-11-03T06:38:56;6.90;;;3.70;;
9473;SDS011;8865;47.636;7.692;2022-11-03T06:41:26;5.90;;;3.97;;
9473;SDS011;8865;47.636;7.692;2022-11-03T06:43:57;8.07;;;5.07;;
9473;SDS011;8865;47.636;7.692;2022-11-03T06:46:26;6.10;;;4.50;;
9473;SDS011;8865;47.636;7.692;2022-11-03T06:48:54;6.10;;;3.90;;
9473;SDS011;8865;47.636;7.692;2022-11-03T06:51:25;11.63;;;5.17;;
9473;SDS011;8865;47.636;7.692;2022-11-03T06:53:53;8.00;;;4.50;;
9473;SDS011;8865;47.636;7.692;2022-11-03T06:56:22;9.27;;;4.40;;
9473;SDS011;8865;47.636;7.692;2022-11-03T06:58:51;8.10;;;4.00;;
9473;SDS011;8865;47.636;7.692;2022-11-03T07:01:19;7.27;;;3.60;;
9473;SDS011;8865;47.636;7.692;2022-11-03T07:03:48;5.43;;;3.20;;
9473;SDS011;8865;47.636;7.692;2022-11-03T07:06:20;5.50;;;3.30;;
9473;SDS011;8865;47.636;7.692;2022-11-03T07:08:52;5.67;;;3.40;;
9473;SDS011;8865;47.636;7.692;2022-11-03T07:11:23;5.03;;;3.40;;
9473;SDS011;8865;47.636;7.692;2022-11-03T07:13:57;8.80;;;3.90;;
9473;SDS011;8865;47.636;7.692;2022-11-03T07:16:33;6.87;;;3.47;;
9473;SDS011;8865;47.636;7.692;2022-11-03T07:19:02;7.27;;;3.60;;
9473;SDS011;8865;47.636;7.692;2022-11-03T07:32:32;7.77;;;4.60;;
9473;SDS011;8865;47.636;7.692;2022-11-03T07:35:01;9.37;;;4.83;;
9473;SDS011;8865;47.636;7.692;2022-11-03T07:37:36;5.60;;;3.57;;
9473;SDS011;8865;47.636;7.692;2022-11-03T07:40:04;10.87;;;5.13;;
9473;SDS011;8865;47.636;7.692;2022-11-03T07:42:36;8.23;;;4.50;;
9473;SDS011;8865;47.636;7.692;2022-11-03T07:45:02;10.40;;;4.97;;
9473;SDS011;8865;47.636;7.692;2022-11-03T07:47:53;7.43;;;4.83;;
9473;SDS011;8865;47.636;7.692;2022-11-03T07:50:19;8.37;;;4.63;;
9473;SDS011;8865;47.636;7.692;2022-11-03T07:52:45;7.20;;;4.80;;
9473;SDS011;8865;47.636;7.692;2022-11-03T07:55:11;9.43;;;4.93;;
9473;SDS011;8865;47.636;7.692;2022-11-03T07:57:39;9.30;;;4.93;;
9473;SDS011;8865;47.636;7.692;2022-11-03T08:00:06;12.53;;;5.20;;
9473;SDS011;8865;47.636;7.692;2022-11-03T08:02:54;11.83;;;5.47;;
9473;SDS011;8865;47.636;7.692;2022-11-03T08:05:25;8.77;;;5.63;;
9473;SDS011;8865;47.636;7.692;2022-11-03T08:07:51;13.43;;;6.80;;
9473;SDS011;8865;47.636;7.692;2022-11-03T08:10:17;8.20;;;6.30;;
9473;SDS011;8865;47.636;7.692;2022-11-03T08:12:43;9.37;;;6.60;;
9473;SDS011;8865;47.636;7.692;2022-11-03T08:15:09;11.80;;;8.03;;
9473;SDS011;8865;47.636;7.692;2022-11-03T08:17:36;13.20;;;8.30;;
9473;SDS011;8865;47.636;7.692;2022-11-03T08:20:02;12.83;;;8.37;;
9473;SDS011;8865;47.636;7.692;2022-11-03T08:22:28;11.93;;;8.73;;
9473;SDS011;8865;47.636;7.692;2022-11-03T08:24:54;8.37;;;6.87;;
9473;SDS011;8865;47.636;7.692;2022-11-03T08:27:20;14.43;;;10.27;;
9473;SDS011;8865;47.636;7.692;2022-11-03T08:29:46;17.07;;;12.00;;
9473;SDS011;8865;47.636;7.692;2022-11-03T08:32:12;15.13;;;12.10;;
9473;SDS011;8865;47.636;7.692;2022-11-03T08:34:38;13.67;;;11.40;;
9473;SDS011;8865;47.636;7.692;2022-11-03T08:37:04;15.43;;;11.67;;
9473;SDS011;8865;47.636;7.692;2022-11-03T08:39:30;14.83;;;11.13;;
9473;SDS011;8865;47.636;7.692;2022-11-03T08:41:56;14.83;;;11.10;;
9473;SDS011;8865;47.636;7.692;2022-11-03T08:44:22;16.50;;;10.63;;
9473;SDS011;8865;47.636;7.692;2022-11-03T08:46:48;12.17;;;9.60;;
9473;SDS011;8865;47.636;7.692;2022-11-03T08:49:13;11.40;;;9.93;;
9473;SDS011;8865;47.636;7.692;2022-11-03T08:51:39;11.07;;;9.83;;
9473;SDS011;8865;47.636;7.692;2022-11-03T08:54:05;13.77;;;9.93;;
9473;SDS011;8865;47.636;7.692;2022-11-03T08:56:31;14.20;;;10.03;;
9473;SDS011;8865;47.636;7.692;2022-11-03T08:58:57;13.07;;;10.30;;
9473;SDS011;8865;47.636;7.692;2022-11-03T09:01:23;10.93;;;9.80;;
9473;SDS011;8865;47.636;7.692;2022-11-03T09:03:49;11.77;;;9.47;;
9473;SDS011;8865;47.636;7.692;2022-11-03T09:06:15;10.43;;;8.77;;
9473;SDS011;8865;47.636;7.692;2022-11-03T09:08:41;9.60;;;8.13;;
9473;SDS011;8865;47.636;7.692;2022-11-03T09:11:07;11.10;;;7.57;;
9473;SDS011;8865;47.636;7.692;2022-11-03T09:13:33;9.27;;;7.30;;
9473;SDS011;8865;47.636;7.692;2022-11-03T09:15:59;8.53;;;7.17;;
9473;SDS011;8865;47.636;7.692;2022-11-03T09:18:25;8.30;;;7.30;;
9473;SDS011;8865;47.636;7.692;2022-11-03T09:20:51;7.53;;;6.63;;
9473;SDS011;8865;47.636;7.692;2022-11-03T09:23:16;8.30;;;6.50;;
9473;SDS011;8865;47.636;7.692;2022-11-03T09:25:42;9.27;;;6.90;;
9473;SDS011;8865;47.636;7.692;2022-11-03T09:28:08;11.40;;;6.43;;
9473;SDS011;8865;47.636;7.692;2022-11-03T09:30:34;7.53;;;6.53;;
9473;SDS011;8865;47.636;7.692;2022-11-03T09:33:00;7.37;;;6.40;;
9473;SDS011;8865;47.636;7.692;2022-11-03T09:35:26;7.70;;;5.90;;
9473;SDS011;8865;47.636;7.692;2022-11-03T09:37:52;8.90;;;6.70;;
9473;SDS011;8865;47.636;7.692;2022-11-03T09:40:18;7.63;;;6.70;;
9473;SDS011;8865;47.636;7.692;2022-11-03T09:42:46;9.27;;;6.17;;
9473;SDS011;8865;47.636;7.692;2022-11-03T09:45:12;10.87;;;6.90;;
9473;SDS011;8865;47.636;7.692;2022-11-03T09:47:39;8.37;;;6.40;;
9473;SDS011;8865;47.636;7.692;2022-11-03T09:50:11;7.50;;;6.10;;
9473;SDS011;8865;47.636;7.692;2022-11-03T09:52:40;6.77;;;5.63;;
9473;SDS011;8865;47.636;7.692;2022-11-03T09:55:11;6.63;;;5.90;;
9473;SDS011;8865;47.636;7.692;2022-11-03T09:57:42;6.77;;;5.80;;
9473;SDS011;8865;47.636;7.692;2022-11-03T10:00:18;6.57;;;5.60;;
9473;SDS011;8865;47.636;7.692;2022-11-03T10:02:45;7.47;;;5.60;;
9473;SDS011;8865;47.636;7.692;2022-11-03T10:05:12;8.17;;;5.30;;
9473;SDS011;8865;47.636;7.692;2022-11-03T10:07:43;5.80;;;5.00;;
9473;SDS011;8865;47.636;7.692;2022-11-03T10:10:17;5.47;;;4.97;;
9473;SDS011;8865;47.636;7.692;2022-11-03T10:12:45;8.50;;;4.87;;
9473;SDS011;8865;47.636;7.692;2022-11-03T10:15:13;7.60;;;5.17;;
9473;SDS011;8865;47.636;7.692;2022-11-03T10:17:40;5.33;;;4.60;;
9473;SDS011;8865;47.636;7.692;2022-11-03T10:20:14;7.17;;;5.13;;
9473;SDS011;8865;47.636;7.692;2022-11-03T10:22:42;7.97;;;5.47;;
9473;SDS011;8865;47.636;7.692;2022-11-03T10:27:57;6.13;;;4.60;;
9473;SDS011;8865;47.636;7.692;2022-11-03T10:30:45;6.40;;;4.80;;
9473;SDS011;8865;47.636;7.692;2022-11-03T10:33:38;5.77;;;5.17;;
9473;SDS011;8865;47.636;7.692;2022-11-03T10:38:51;9.00;;;5.17;;
9473;SDS011;8865;47.636;7.692;2022-11-03T10:41:19;7.17;;;4.90;;
9473;SDS011;8865;47.636;7.692;2022-11-03T10:46:26;7.27;;;5.40;;
9473;SDS011;8865;47.636;7.692;2022-11-03T10:51:41;7.60;;;6.00;;
9473;SDS011;8865;47.636;7.692;2022-11-03T10:54:12;7.50;;;5.70;;
9473;SDS011;8865;47.636;7.692;2022-11-03T10:56:44;7.57;;;5.73;;
9473;SDS011;8865;47.636;7.692;2022-11-03T10:59:15;5.13;;;4.63;;
9473;SDS011;8865;47.636;7.692;2022-11-03T11:01:41;6.40;;;5.10;;
9473;SDS011;8865;47.636;7.692;2022-11-03T11:04:09;7.73;;;5.30;;
9473;SDS011;8865;47.636;7.692;2022-11-03T11:06:39;6.07;;;4.70;;
9473;SDS011;8865;47.636;7.692;2022-11-03T11:09:05;8.70;;;5.30;;
9473;SDS011;8865;47.636;7.692;2022-11-03T11:11:34;5.63;;;4.63;;
9473;SDS011;8865;47.636;7.692;2022-11-03T11:17:03;5.30;;;4.37;;
9473;SDS011;8865;47.636;7.692;2022-11-03T11:20:16;6.53;;;4.43;;
9473;SDS011;8865;47.636;7.692;2022-11-03T11:22:35;7.80;;;5.10;;
9473;SDS011;8865;47.636;7.692;2022-11-03T11:25:01;5.83;;;4.87;;
9473;SDS011;8865;47.636;7.692;2022-11-03T11:29:56;6.17;;;4.73;;
9473;SDS011;8865;47.636;7.692;2022-11-03T11:35:01;6.70;;;5.10;;
9473;SDS011;8865;47.636;7.692;2022-11-03T11:39:53;6.43;;;4.30;;
9473;SDS011;8865;47.636;7.692;2022-11-03T11:42:19;5.27;;;4.67;;
9473;SDS011;8865;47.636;7.692;2022-11-03T11:44:47;5.87;;;5.03;;
9473;SDS011;8865;47.636;7.692;2022-11-03T11:47:21;7.97;;;4.73;;
9473;SDS011;8865;47.636;7.692;2022-11-03T11:50:34;5.83;;;5.17;;
9473;SDS011;8865;47.636;7.692;2022-11-03T11:55:39;5.97;;;5.00;;
9473;SDS011;8865;47.636;7.692;2022-11-03T11:58:20;7.80;;;5.40;;
9473;SDS011;8865;47.636;7.692;2022-11-03T12:00:54;7.27;;;5.00;;
9473;SDS011;8865;47.636;7.692;2022-11-03T12:03:24;8.13;;;5.10;;
9473;SDS011;8865;47.636;7.692;2022-11-03T12:05:53;6.50;;;4.93;;
9473;SDS011;8865;47.636;7.692;2022-11-03T12:08:19;5.30;;;4.80;;
9473;SDS011;8865;47.636;7.692;2022-11-03T12:10:54;9.33;;;5.50;;
9473;SDS011;8865;47.636;7.692;2022-11-03T12:13:41;7.23;;;5.97;;
9473;SDS011;8865;47.636;7.692;2022-11-03T12:16:28;6.37;;;5.77;;
9473;SDS011;8865;47.636;7.692;2022-11-03T12:18:55;9.37;;;7.33;;
9473;SDS011;8865;47.636;7.692;2022-11-03T12:24:26;9.23;;;8.17;;
9473;SDS011;8865;47.636;7.692;2022-11-03T12:26:58;9.23;;;7.20;;
9473;SDS011;8865;47.636;7.692;2022-11-03T12:29:25;7.87;;;6.50;;
9473;SDS011;8865;47.636;7.692;2022-11-03T12:31:51;7.60;;;6.13;;
9473;SDS011;8865;47.636;7.692;2022-11-03T12:34:18;7.47;;;5.53;;
9473;SDS011;8865;47.636;7.692;2022-11-03T12:36:44;6.40;;;5.50;;
9473;SDS011;8865;47.636;7.692;2022-11-03T12:39:10;7.07;;;5.60;;
9473;SDS011;8865;47.636;7.692;2022-11-03T12:41:37;5.90;;;5.40;;
9473;SDS011;8865;47.636;7.692;2022-11-03T12:44:03;6.47;;;5.73;;
9473;SDS011;8865;47.636;7.692;2022-11-03T12:46:29;7.63;;;5.30;;
9473;SDS011;8865;47.636;7.692;2022-11-03T12:48:55;7.30;;;5.27;;
9473;SDS011;8865;47.636;7.692;2022-11-03T12:51:22;7.77;;;5.27;;
9473;SDS011;8865;47.636;7.692;2022-11-03T12:53:49;8.90;;;5.40;;
9473;SDS011;8865;47.636;7.692;2022-11-03T12:56:16;6.27;;;5.57;;
9473;SDS011;8865;47.636;7.692;2022-11-03T12:58:44;6.90;;;5.30;;
9473;SDS011;8865;47.636;7.692;2022-11-03T13:01:10;6.87;;;5.10;;
9473;SDS011;8865;47.636;7.692;2022-11-03T13:03:36;6.50;;;4.80;;
9473;SDS011;8865;47.636;7.692;2022-11-03T13:06:03;5.80;;;4.87;;
9473;SDS011;8865;47.636;7.692;2022-11-03T13:08:35;6.63;;;4.90;;
9473;SDS011;8865;47.636;7.692;2022-11-03T13:11:04;7.67;;;5.10;;
9473;SDS011;8865;47.636;7.692;2022-11-03T13:13:50;5.73;;;4.73;;
9473;SDS011;8865;47.636;7.692;2022-11-03T13:16:17;7.57;;;4.53;;
9473;SDS011;8865;47.636;7.692;2022-11-03T13:18:43;6.93;;;4.27;;
9473;SDS011;8865;47.636;7.692;2022-11-03T13:21:09;6.80;;;4.40;;
9473;SDS011;8865;47.636;7.692;2022-11-03T13:23:35;7.27;;;4.27;;
9473;SDS011;8865;47.636;7.692;2022-11-03T13:26:01;7.97;;;4.97;;
9473;SDS011;8865;47.636;7.692;2022-11-03T13:28:30;9.93;;;4.70;;
9473;SDS011;8865;47.636;7.692;2022-11-03T13:30:59;8.50;;;5.17;;
9473;SDS011;8865;47.636;7.692;2022-11-03T13:33:27;5.93;;;5.00;;
9473;SDS011;8865;47.636;7.692;2022-11-03T13:35:53;8.03;;;5.27;;
9473;SDS011;8865;47.636;7.692;2022-11-03T13:38:19;5.50;;;4.87;;
9473;SDS011;8865;47.636;7.692;2022-11-03T13:40:48;7.73;;;5.70;;
9473;SDS011;8865;47.636;7.692;2022-11-03T13:43:14;7.57;;;5.03;;
9473;SDS011;8865;47.636;7.692;2022-11-03T13:45:40;10.37;;;6.13;;
9473;SDS011;8865;47.636;7.692;2022-11-03T13:48:06;7.60;;;6.10;;
9473;SDS011;8865;47.636;7.692;2022-11-03T13:50:32;7.53;;;5.90;;
9473;SDS011;8865;47.636;7.692;2022-11-03T13:52:58;10.27;;;6.80;;
9473;SDS011;8865;47.636;7.692;2022-11-03T13:55:24;7.37;;;6.00;;
9473;SDS011;8865;47.636;7.692;2022-11-03T13:57:50;7.00;;;5.83;;
9473;SDS011;8865;47.636;7.692;2022-11-03T14:00:16;6.73;;;5.30;;
9473;SDS011;8865;47.636;7.692;2022-11-03T14:02:42;7.20;;;5.87;;
9473;SDS011;8865;47.636;7.692;2022-11-03T14:05:09;8.37;;;5.90;;
9473;SDS011;8865;47.636;7.692;2022-11-03T14:07:35;11.30;;;6.00;;
9473;SDS011;8865;47.636;7.692;2022-11-03T14:10:02;7.40;;;5.50;;
9473;SDS011;8865;47.636;7.692;2022-11-03T14:12:28;6.57;;;5.33;;
9473;SDS011;8865;47.636;7.692;2022-11-03T14:14:57;7.13;;;5.80;;
9473;SDS011;8865;47.636;7.692;2022-11-03T14:17:24;6.53;;;5.30;;
9473;SDS011;8865;47.636;7.692;2022-11-03T14:19:50;7.53;;;4.90;;
9473;SDS011;8865;47.636;7.692;2022-11-03T14:22:21;7.33;;;5.43;;
9473;SDS011;8865;47.636;7.692;2022-11-03T14:24:48;11.33;;;5.63;;
9473;SDS011;8865;47.636;7.692;2022-11-03T14:27:15;9.17;;;5.27;;
9473;SDS011;8865;47.636;7.692;2022-11-03T14:29:43;6.93;;;5.10;;
9473;SDS011;8865;47.636;7.692;2022-11-03T14:32:09;6.87;;;4.93;;
9473;SDS011;8865;47.636;7.692;2022-11-03T14:34:36;6.83;;;4.73;;
9473;SDS011;8865;47.636;7.692;2022-11-03T14:37:06;6.67;;;5.00;;
9473;SDS011;8865;47.636;7.692;2022-11-03T14:39:35;5.93;;;5.30;;
9473;SDS011;8865;47.636;7.692;2022-11-03T14:42:02;7.17;;;5.43;;
9473;SDS011;8865;47.636;7.692;2022-11-03T14:44:33;7.70;;;5.73;;
9473;SDS011;8865;47.636;7.692;2022-11-03T14:47:04;6.83;;;4.87;;
9473;SDS011;8865;47.636;7.692;2022-11-03T14:49:32;7.17;;;5.80;;
9473;SDS011;8865;47.636;7.692;2022-11-03T14:51:59;7.70;;;4.77;;
9473;SDS011;8865;47.636;7.692;2022-11-03T14:54:29;7.33;;;5.30;;
9473;SDS011;8865;47.636;7.692;2022-11-03T14:56:56;8.73;;;5.10;;
9473;SDS011;8865;47.636;7.692;2022-11-03T14:59:22;12.00;;;6.03;;
9473;SDS011;8865;47.636;7.692;2022-11-03T15:01:49;10.30;;;5.57;;
9473;SDS011;8865;47.636;7.692;2022-11-03T15:04:18;7.30;;;5.27;;
9473;SDS011;8865;47.636;7.692;2022-11-03T15:06:44;6.27;;;5.37;;
9473;SDS011;8865;47.636;7.692;2022-11-03T15:09:10;6.70;;;4.80;;
9473;SDS011;8865;47.636;7.692;2022-11-03T15:11:42;7.93;;;6.17;;
9473;SDS011;8865;47.636;7.692;2022-11-03T15:14:10;10.37;;;6.07;;
9473;SDS011;8865;47.636;7.692;2022-11-03T15:16:36;6.67;;;5.70;;
9473;SDS011;8865;47.636;7.692;2022-11-03T15:19:04;8.53;;;6.10;;
9473;SDS011;8865;47.636;7.692;2022-11-03T15:21:31;7.80;;;6.13;;
9473;SDS011;8865;47.636;7.692;2022-11-03T15:23:57;7.33;;;6.53;;
9473;SDS011;8865;47.636;7.692;2022-11-03T15:26:23;7.97;;;6.33;;
9473;SDS011;8865;47.636;7.692;2022-11-03T15:28:49;8.43;;;6.60;;
9473;SDS011;8865;47.636;7.692;2022-11-03T15:31:15;9.30;;;6.70;;
9473;SDS011;8865;47.636;7.692;2022-11-03T15:33:41;10.43;;;6.83;;
9473;SDS011;8865;47.636;7.692;2022-11-03T15:36:07;7.73;;;6.00;;
9473;SDS011;8865;47.636;7.692;2022-11-03T15:38:33;7.20;;;6.50;;
9473;SDS011;8865;47.636;7.692;2022-11-03T15:40:59;7.83;;;6.20;;
9473;SDS011;8865;47.636;7.692;2022-11-03T15:43:42;6.43;;;5.67;;
9473;SDS011;8865;47.636;7.692;2022-11-03T15:46:08;9.03;;;6.37;;
9473;SDS011;8865;47.636;7.692;2022-11-03T15:48:35;10.57;;;7.03;;
9473;SDS011;8865;47.636;7.692;2022-11-03T15:51:02;8.17;;;6.93;;
9473;SDS011;8865;47.636;7.692;2022-11-03T15:53:28;8.70;;;6.77;;
9473;SDS011;8865;47.636;7.692;2022-11-03T15:55:54;7.73;;;6.23;;
9473;SDS011;8865;47.636;7.692;2022-11-03T15:58:20;6.80;;;6.07;;
9473;SDS011;8865;47.636;7.692;2022-11-03T16:00:46;7.93;;;6.70;;
9473;SDS011;8865;47.636;7.692;2022-11-03T16:03:12;7.50;;;5.93;;
9473;SDS011;8865;47.636;7.692;2022-11-03T16:05:38;9.20;;;6.47;;
9473;SDS011;8865;47.636;7.692;2022-11-03T16:08:04;7.80;;;5.97;;
9473;SDS011;8865;47.636;7.692;2022-11-03T16:10:30;7.63;;;6.17;;
9473;SDS011;8865;47.636;7.692;2022-11-03T16:12:56;7.10;;;5.90;;
9473;SDS011;8865;47.636;7.692;2022-11-03T16:15:22;7.17;;;6.20;;
9473;SDS011;8865;47.636;7.692;2022-11-03T16:17:48;8.00;;;6.37;;
9473;SDS011;8865;47.636;7.692;2022-11-03T16:20:14;8.57;;;6.17;;
9473;SDS011;8865;47.636;7.692;2022-11-03T16:22:40;8.70;;;7.10;;
9473;SDS011;8865;47.636;7.692;2022-11-03T16:25:06;8.60;;;6.10;;
9473;SDS011;8865;47.636;7.692;2022-11-03T16:27:32;7.83;;;6.93;;
9473;SDS011;8865;47.636;7.692;2022-11-03T16:29:58;12.23;;;6.30;;
9473;SDS011;8865;47.636;7.692;2022-11-03T16:32:24;11.23;;;6.67;;
9473;SDS011;8865;47.636;7.692;2022-11-03T16:34:50;9.17;;;6.47;;